createdAt,value
2018-11-27T00:00:28.582Z,91.21
2018-11-27T00:03:00.138Z,91.43
2018-11-27T00:05:29.276Z,91.28
2018-11-27T00:07:57.760Z,90.77
2018-11-27T00:10:26.282Z,90.79
2018-11-27T00:12:54.858Z,90.80
2018-11-27T00:15:23.346Z,90.86
2018-11-27T00:17:51.848Z,91.21
2018-11-27T00:20:20.336Z,91.14
2018-11-27T00:22:48.812Z,91.04
2018-11-27T00:25:18.236Z,91.21
2018-11-27T00:27:46.764Z,91.38
2018-11-27T00:30:17.949Z,90.97
2018-11-27T00:32:46.432Z,91.23
2018-11-27T00:35:16.241Z,90.83
2018-11-27T00:37:44.723Z,91.40
2018-11-27T00:40:15.420Z,90.58
2018-11-27T00:42:43.974Z,90.80
2018-11-27T00:45:14.319Z,90.81
2018-11-27T00:47:43.568Z,91.06
2018-11-27T00:50:14.083Z,90.89
2018-11-27T00:52:42.583Z,91.07
2018-11-27T00:55:12.278Z,90.84
2018-11-27T00:57:41.515Z,90.98
2018-11-27T01:00:12.963Z,91.30
2018-11-27T01:02:41.461Z,91.10
2018-11-27T01:05:13.227Z,90.96
2018-11-27T01:07:41.830Z,91.06
2018-11-27T01:10:12.875Z,90.98
2018-11-27T01:12:41.421Z,90.64
2018-11-27T01:15:11.224Z,91.17
2018-11-27T01:17:43.806Z,91.12
2018-11-27T01:20:21.072Z,90.81
2018-11-27T01:22:49.604Z,90.93
2018-11-27T01:25:18.140Z,90.95
2018-11-27T01:27:46.659Z,90.94
2018-11-27T01:30:17.989Z,91.06
2018-11-27T01:32:46.738Z,91.10
2018-11-27T01:35:16.953Z,91.03
2018-11-27T01:37:46.056Z,91.31
2018-11-27T01:40:16.740Z,91.23
2018-11-27T01:42:45.533Z,91.46
2018-11-27T01:45:14.939Z,91.14
2018-11-27T01:47:43.454Z,91.11
2018-11-27T01:50:13.812Z,91.44
2018-11-27T01:52:42.411Z,91.48
2018-11-27T01:55:13.820Z,91.06
2018-11-27T01:57:42.337Z,90.93
2018-11-27T02:00:24.956Z,91.00
2018-11-27T02:02:53.911Z,91.19
2018-11-27T02:05:23.002Z,90.75
2018-11-27T02:07:51.552Z,90.60
2018-11-27T02:10:20.071Z,90.93
2018-11-27T02:12:49.538Z,90.79
2018-11-27T02:15:26.462Z,91.04
2018-11-27T02:17:55.028Z,90.73
2018-11-27T02:20:23.489Z,91.37
2018-11-27T02:22:52.010Z,91.45
2018-11-27T02:25:22.445Z,91.49
2018-11-27T02:27:50.968Z,91.41
2018-11-27T02:30:20.853Z,91.53
2018-11-27T02:32:50.225Z,91.17
2018-11-27T02:35:21.838Z,90.96
2018-11-27T02:37:51.731Z,91.20
2018-11-27T02:40:20.247Z,91.39
2018-11-27T02:42:48.780Z,90.87
2018-11-27T02:45:18.573Z,90.79
2018-11-27T02:47:47.707Z,90.85
2018-11-27T02:50:20.809Z,91.21
2018-11-27T02:52:49.320Z,90.95
2018-11-27T02:55:22.147Z,90.32
2018-11-27T02:57:50.796Z,90.20
2018-11-27T03:00:21.252Z,90.27
2018-11-27T03:02:49.770Z,90.54
2018-11-27T03:05:27.047Z,90.14
2018-11-27T03:07:55.580Z,89.60
2018-11-27T03:10:24.118Z,89.91
2018-11-27T03:12:52.692Z,89.63
2018-11-27T03:15:21.193Z,89.12
2018-11-27T03:17:49.683Z,89.31
2018-11-27T03:20:19.575Z,89.21
2018-11-27T03:22:48.079Z,89.71
2018-11-27T03:25:18.526Z,89.18
2018-11-27T03:27:48.087Z,89.25
2018-11-27T03:30:23.872Z,89.66
2018-11-27T03:32:52.453Z,89.76
2018-11-27T03:35:22.872Z,89.58
2018-11-27T03:37:51.579Z,89.50
2018-11-27T03:40:28.285Z,89.81
2018-11-27T03:42:56.816Z,89.41
2018-11-27T03:45:26.213Z,89.12
2018-11-27T03:47:54.698Z,89.11
2018-11-27T03:50:26.329Z,89.38
2018-11-27T03:52:54.865Z,89.18
2018-11-27T03:55:23.444Z,89.70
2018-11-27T03:57:51.993Z,89.01
2018-11-27T04:00:22.297Z,88.83
2018-11-27T04:02:54.265Z,89.01
2018-11-27T04:05:23.810Z,89.09
2018-11-27T04:07:52.313Z,89.28
2018-11-27T04:10:20.961Z,89.02
2018-11-27T04:12:49.423Z,89.11
2018-11-27T04:15:18.029Z,89.19
2018-11-27T04:17:46.511Z,89.27
2018-11-27T04:20:15.030Z,88.77
2018-11-27T04:22:44.119Z,88.83
2018-11-27T04:25:13.920Z,88.59
2018-11-27T04:27:42.495Z,88.62
2018-11-27T04:30:16.040Z,88.47
2018-11-27T04:32:44.599Z,88.63
2018-11-27T04:35:16.058Z,89.00
2018-11-27T04:37:44.654Z,88.53
2018-11-27T04:40:15.163Z,88.34
2018-11-27T04:42:43.711Z,88.56
2018-11-27T04:45:13.656Z,88.89
2018-11-27T04:47:42.172Z,89.06
2018-11-27T04:50:11.833Z,88.90
2018-11-27T04:52:40.461Z,88.97
2018-11-27T04:55:10.602Z,88.55
2018-11-27T04:57:39.108Z,88.51
2018-11-27T05:00:13.045Z,88.94
2018-11-27T05:02:41.576Z,88.97
2018-11-27T05:05:10.649Z,89.25
2018-11-27T05:07:39.178Z,88.33
2018-11-27T05:10:10.804Z,88.51
2018-11-27T05:12:39.519Z,88.02
2018-11-27T05:15:12.194Z,88.47
2018-11-27T05:17:40.770Z,88.44
2018-11-27T05:20:10.586Z,88.57
2018-11-27T05:22:39.099Z,88.39
2018-11-27T05:25:13.140Z,88.37
2018-11-27T05:27:42.817Z,88.44
2018-11-27T05:30:20.229Z,88.45
2018-11-27T05:32:48.720Z,87.88
2018-11-27T05:35:19.251Z,87.60
2018-11-27T05:37:48.756Z,87.50
2018-11-27T05:40:19.318Z,86.99
2018-11-27T05:42:48.752Z,86.83
2018-11-27T05:45:19.333Z,87.04
2018-11-27T05:47:47.972Z,87.20
2018-11-27T05:50:17.454Z,86.61
2018-11-27T05:52:46.059Z,86.78
2018-11-27T05:55:15.155Z,87.19
2018-11-27T05:57:44.716Z,87.06
2018-11-27T06:00:22.721Z,87.18
2018-11-27T06:02:53.470Z,86.74
2018-11-27T06:05:22.622Z,87.03
2018-11-27T06:07:51.180Z,86.87
2018-11-27T06:10:20.608Z,87.08
2018-11-27T06:12:49.120Z,87.21
2018-11-27T06:15:22.628Z,87.25
2018-11-27T06:17:52.446Z,87.04
2018-11-27T06:20:21.756Z,86.94
2018-11-27T06:22:50.430Z,86.85
2018-11-27T06:25:20.003Z,87.26
2018-11-27T06:27:53.969Z,87.28
2018-11-27T06:30:23.658Z,87.24
2018-11-27T06:32:52.205Z,86.86
2018-11-27T06:35:22.839Z,86.82
2018-11-27T06:37:51.408Z,86.70
2018-11-27T06:40:22.284Z,86.80
2018-11-27T06:42:51.013Z,86.91
2018-11-27T06:45:20.140Z,86.38
2018-11-27T06:47:49.667Z,86.53
2018-11-27T06:50:19.862Z,86.42
2018-11-27T06:52:48.443Z,86.41
2018-11-27T06:55:19.219Z,86.32
2018-11-27T06:57:47.751Z,86.54
2018-11-27T07:00:17.395Z,85.68
2018-11-27T07:02:45.961Z,85.64
2018-11-27T07:05:15.044Z,86.04
2018-11-27T07:07:43.789Z,86.04
2018-11-27T07:10:20.540Z,85.82
2018-11-27T07:12:50.395Z,84.83
2018-11-27T07:15:20.418Z,85.33
2018-11-27T07:17:49.327Z,84.88
2018-11-27T07:20:17.932Z,85.12
2018-11-27T07:22:46.443Z,84.72
2018-11-27T07:25:15.881Z,84.65
2018-11-27T07:27:46.551Z,83.81
2018-11-27T07:30:17.668Z,83.73
2018-11-27T07:32:46.190Z,84.59
2018-11-27T07:35:15.356Z,84.39
2018-11-27T07:37:43.955Z,84.19
2018-11-27T07:40:17.303Z,84.20
2018-11-27T07:42:46.036Z,83.03
2018-11-27T07:45:16.633Z,83.18
2018-11-27T07:47:46.258Z,82.88
2018-11-27T07:50:15.653Z,82.58
2018-11-27T07:52:44.207Z,82.59
2018-11-27T07:55:13.630Z,82.55
2018-11-27T07:57:42.204Z,82.11
2018-11-27T08:00:12.814Z,82.79
2018-11-27T08:02:41.460Z,82.04
2018-11-27T08:05:13.255Z,82.38
2018-11-27T08:07:42.931Z,82.22
2018-11-27T08:10:13.998Z,81.81
2018-11-27T08:12:42.516Z,82.09
2018-11-27T08:15:12.511Z,81.90
2018-11-27T08:17:41.583Z,81.98
2018-11-27T08:20:15.258Z,81.54
2018-11-27T08:22:43.829Z,81.35
2018-11-27T08:25:13.631Z,81.29
2018-11-27T08:27:42.167Z,80.56
2018-11-27T08:30:14.788Z,81.79
2018-11-27T08:32:43.409Z,80.63
2018-11-27T08:35:17.896Z,80.85
2018-11-27T08:37:47.216Z,80.59
2018-11-27T08:40:16.594Z,80.41
2018-11-27T08:42:45.132Z,79.29
2018-11-27T08:45:14.901Z,80.00
2018-11-27T08:47:43.484Z,79.87
2018-11-27T08:50:16.211Z,79.60
2018-11-27T08:52:46.877Z,79.32
2018-11-27T08:55:16.043Z,80.33
2018-11-27T08:57:45.724Z,79.68
2018-11-27T09:00:18.373Z,79.52
2018-11-27T09:02:47.074Z,79.85
2018-11-27T09:05:15.822Z,79.09
2018-11-27T09:07:44.878Z,78.78
2018-11-27T09:10:15.877Z,79.03
2018-11-27T09:12:44.418Z,78.24
2018-11-27T09:15:14.043Z,77.61
2018-11-27T09:17:44.164Z,78.61
2018-11-27T09:20:13.231Z,77.93
2018-11-27T09:22:41.789Z,78.50
2018-11-27T09:25:12.651Z,77.95
2018-11-27T09:27:41.207Z,77.40
2018-11-27T09:30:12.005Z,77.84
2018-11-27T09:32:40.590Z,78.05
2018-11-27T09:35:09.588Z,76.07
2018-11-27T09:37:38.193Z,76.02
2018-11-27T09:40:09.800Z,76.32
2018-11-27T09:42:38.360Z,75.74
2018-11-27T09:45:09.723Z,75.78
2018-11-27T09:47:38.249Z,76.62
2018-11-27T09:50:09.058Z,76.48
2018-11-27T09:52:37.577Z,76.49
2018-11-27T09:55:12.981Z,75.94
2018-11-27T09:57:41.532Z,76.14
2018-11-27T10:00:16.001Z,75.81
2018-11-27T10:02:44.593Z,74.73
2018-11-27T10:05:13.188Z,75.07
2018-11-27T10:07:41.763Z,75.54
2018-11-27T10:10:11.559Z,75.38
2018-11-27T10:12:40.256Z,74.31
2018-11-27T10:15:28.421Z,74.74
2018-11-27T10:17:58.099Z,73.39
2018-11-27T10:20:27.979Z,74.20
2018-11-27T10:22:56.534Z,73.14
2018-11-27T10:25:25.085Z,73.31
2018-11-27T10:27:53.627Z,72.36
2018-11-27T10:30:25.775Z,73.54
2018-11-27T10:32:58.459Z,73.29
2018-11-27T10:35:30.136Z,72.17
2018-11-27T10:37:58.644Z,72.25
2018-11-27T10:40:27.186Z,72.27
2018-11-27T10:42:55.722Z,72.38
2018-11-27T10:45:24.355Z,72.46
2018-11-27T10:47:54.047Z,71.41
2018-11-27T10:50:22.780Z,71.72
2018-11-27T10:52:53.439Z,70.87
2018-11-27T10:55:22.495Z,69.76
2018-11-27T10:57:51.083Z,69.88
2018-11-27T11:00:28.919Z,70.81
2018-11-27T11:04:04.438Z,70.90
2018-11-27T11:06:33.428Z,70.73
2018-11-27T11:09:02.764Z,69.07
2018-11-27T11:11:31.325Z,70.65
2018-11-27T11:13:59.885Z,71.32
2018-11-27T11:16:28.391Z,70.81
2018-11-27T11:18:56.928Z,69.33
2018-11-27T11:21:25.580Z,68.70
2018-11-27T11:23:54.776Z,68.90
2018-11-27T11:26:23.379Z,67.77
2018-11-27T11:28:51.894Z,67.82
2018-11-27T11:31:20.387Z,68.94
2018-11-27T11:33:48.914Z,69.13
2018-11-27T11:36:17.473Z,67.63
2018-11-27T11:38:46.163Z,67.39
2018-11-27T11:41:14.947Z,66.19
2018-11-27T11:43:43.590Z,66.85
2018-11-27T11:46:12.178Z,64.43
2018-11-27T11:48:40.731Z,65.35
2018-11-27T11:51:09.244Z,66.12
2018-11-27T11:53:37.966Z,66.09
2018-11-27T11:56:08.165Z,65.38
2018-11-27T11:58:36.928Z,63.82
2018-11-27T12:01:05.858Z,63.83
2018-11-27T12:03:34.542Z,65.13
2018-11-27T12:06:03.127Z,63.18
2018-11-27T12:08:31.699Z,64.64
2018-11-27T12:11:00.206Z,64.37
2018-11-27T12:13:28.783Z,63.57
2018-11-27T12:15:57.388Z,63.61
2018-11-27T12:18:25.968Z,64.12
2018-11-27T12:20:54.631Z,63.79
2018-11-27T12:23:23.503Z,63.58
2018-11-27T12:25:52.298Z,62.65
2018-11-27T12:28:20.950Z,62.96
2018-11-27T12:30:49.444Z,62.92
2018-11-27T12:33:17.973Z,62.80
2018-11-27T12:35:46.481Z,61.05
2018-11-27T12:38:16.589Z,63.47
2018-11-27T12:40:45.247Z,63.59
2018-11-27T12:43:13.796Z,63.59
2018-11-27T12:45:42.283Z,62.86
2018-11-27T12:48:10.802Z,63.26
2018-11-27T12:50:43.504Z,63.56
2018-11-27T12:53:16.835Z,62.45
2018-11-27T12:55:45.788Z,62.86
2018-11-27T12:58:14.356Z,62.21
2018-11-27T13:00:42.952Z,63.19
2018-11-27T13:03:11.595Z,62.79
2018-11-27T13:05:43.077Z,63.02
2018-11-27T13:08:14.414Z,63.49
2018-11-27T13:10:43.236Z,63.70
2018-11-27T13:13:11.807Z,63.24
2018-11-27T13:15:40.942Z,62.38
2018-11-27T13:18:10.281Z,63.38
2018-11-27T13:20:39.633Z,63.44
2018-11-27T13:23:08.680Z,64.58
2018-11-27T13:25:37.942Z,64.18
2018-11-27T13:28:08.832Z,64.15
2018-11-27T13:31:13.424Z,64.24
2018-11-27T13:34:15.517Z,65.06
2018-11-27T13:36:44.027Z,65.04
2018-11-27T13:39:23.869Z,65.65
2018-11-27T13:41:52.444Z,65.85
2018-11-27T13:44:20.976Z,65.69
2018-11-27T13:46:49.524Z,65.55
2018-11-27T13:49:18.034Z,66.86
2018-11-27T13:51:46.621Z,66.46
2018-11-27T13:54:15.140Z,65.77
2018-11-27T13:56:43.674Z,65.40
2018-11-27T13:59:12.210Z,66.59
2018-11-27T14:01:40.711Z,66.33
2018-11-27T14:04:09.251Z,66.17
2018-11-27T14:06:37.743Z,65.55
2018-11-27T14:09:09.110Z,65.72
2018-11-27T14:11:37.821Z,67.17
2018-11-27T14:14:07.172Z,67.03
2018-11-27T14:16:36.059Z,66.78
2018-11-27T14:19:04.652Z,66.29
2018-11-27T14:21:33.188Z,67.51
2018-11-27T14:24:01.740Z,67.28
2018-11-27T14:26:30.281Z,68.06
2018-11-27T14:28:58.868Z,68.02
2018-11-27T14:31:27.466Z,68.37
2018-11-27T14:33:56.029Z,68.87
2018-11-27T14:36:24.604Z,68.43
2018-11-27T14:38:53.283Z,68.66
2018-11-27T14:41:21.767Z,68.42
2018-11-27T14:43:50.267Z,69.36
2018-11-27T14:46:18.779Z,68.88
2018-11-27T14:48:47.316Z,68.89
2018-11-27T14:51:15.848Z,68.98
2018-11-27T14:53:44.351Z,69.36
2018-11-27T14:56:12.925Z,69.25
2018-11-27T14:58:41.439Z,70.23
2018-11-27T15:01:09.992Z,69.71
2018-11-27T15:03:38.531Z,70.53
2018-11-27T15:06:07.124Z,71.20
2018-11-27T15:08:35.679Z,71.00
2018-11-27T15:11:04.205Z,71.02
2018-11-27T15:13:32.740Z,71.55
2018-11-27T15:16:01.411Z,72.42
2018-11-27T15:18:29.968Z,72.65
2018-11-27T15:20:58.525Z,72.85
2018-11-27T15:23:27.066Z,73.16
2018-11-27T15:25:55.609Z,73.65
2018-11-27T15:28:24.119Z,74.25
2018-11-27T15:30:52.635Z,74.22
2018-11-27T15:33:21.199Z,74.72
2018-11-27T15:35:49.727Z,75.29
2018-11-27T15:38:18.209Z,75.14
2018-11-27T15:40:46.740Z,75.38
2018-11-27T15:43:15.251Z,75.86
2018-11-27T15:45:43.967Z,76.31
2018-11-27T15:48:12.743Z,76.70
2018-11-27T15:50:41.280Z,76.41
2018-11-27T15:53:09.791Z,76.66
2018-11-27T15:55:39.596Z,76.49
2018-11-27T15:58:15.784Z,76.70
2018-11-27T16:00:45.272Z,76.76
2018-11-27T16:03:13.815Z,77.21
2018-11-27T16:05:45.355Z,76.95
2018-11-27T16:08:14.467Z,77.05
2018-11-27T16:10:43.004Z,77.30
2018-11-27T16:13:11.506Z,77.46
2018-11-27T16:15:40.116Z,77.95
2018-11-27T16:18:08.889Z,77.58
2018-11-27T16:20:37.485Z,77.41
2018-11-27T16:23:06.302Z,77.06
2018-11-27T16:25:34.810Z,77.45
2018-11-27T16:28:03.326Z,77.79
2018-11-27T16:30:32.259Z,78.11
2018-11-27T16:33:00.794Z,77.21
2018-11-27T16:35:29.320Z,79.00
2018-11-27T16:37:59.947Z,78.91
2018-11-27T16:40:35.007Z,79.12
2018-11-27T16:43:03.564Z,79.00
2018-11-27T16:45:32.114Z,79.29
2018-11-27T16:48:00.630Z,78.50
2018-11-27T16:50:29.184Z,78.37
2018-11-27T16:52:57.699Z,78.77
2018-11-27T16:55:26.263Z,78.53
2018-11-27T16:57:54.764Z,78.54
2018-11-27T17:00:27.147Z,78.11
2018-11-27T17:02:57.557Z,78.18
2018-11-27T17:05:27.389Z,78.01
2018-11-27T17:07:55.904Z,78.79
2018-11-27T17:10:24.443Z,78.43
2018-11-27T17:12:54.274Z,78.09
2018-11-27T17:15:24.242Z,77.92
2018-11-27T17:17:53.121Z,78.25
2018-11-27T17:20:23.132Z,77.63
2018-11-27T17:22:52.080Z,77.97
2018-11-27T17:25:20.592Z,78.10
2018-11-27T17:27:49.561Z,78.54
2018-11-27T17:30:25.792Z,78.71
2018-11-27T17:32:55.642Z,78.06
2018-11-27T17:35:24.823Z,77.92
2018-11-27T17:37:53.360Z,78.41
2018-11-27T17:40:21.839Z,77.78
2018-11-27T17:42:50.385Z,78.31
2018-11-27T17:45:19.951Z,78.08
2018-11-27T17:47:49.497Z,77.88
2018-11-27T17:50:18.339Z,78.93
2018-11-27T17:52:46.860Z,78.38
2018-11-27T17:55:15.464Z,79.15
2018-11-27T17:57:43.982Z,78.88
2018-11-27T18:00:15.804Z,79.07
2018-11-27T18:02:45.923Z,79.12
2018-11-27T18:05:14.440Z,78.96
2018-11-27T18:07:42.996Z,80.46
2018-11-27T18:10:12.145Z,81.56
2018-11-27T18:12:40.685Z,82.52
2018-11-27T18:15:17.227Z,82.81
2018-11-27T18:17:45.857Z,82.44
2018-11-27T18:20:14.508Z,81.47
2018-11-27T18:22:43.047Z,81.55
2018-11-27T18:25:13.811Z,81.11
2018-11-27T18:27:43.241Z,80.46
2018-11-27T18:30:13.159Z,80.93
2018-11-27T18:32:41.749Z,80.13
2018-11-27T18:35:12.717Z,79.34
2018-11-27T18:37:41.291Z,79.38
2018-11-27T18:40:12.917Z,78.69
2018-11-27T18:42:41.614Z,80.21
2018-11-27T18:45:13.552Z,80.48
2018-11-27T18:47:42.043Z,80.39
2018-11-27T18:50:11.337Z,80.33
2018-11-27T18:52:39.924Z,80.00
2018-11-27T18:55:10.675Z,80.49
2018-11-27T18:57:39.311Z,80.38
2018-11-27T19:00:27.024Z,80.80
2018-11-27T19:02:55.720Z,81.06
2018-11-27T19:05:24.271Z,81.64
2018-11-27T19:07:52.799Z,81.83
2018-11-27T19:10:23.512Z,81.58
2018-11-27T19:12:52.098Z,81.47
2018-11-27T19:15:38.735Z,82.07
2018-11-27T19:18:14.270Z,81.88
2018-11-27T19:20:43.578Z,82.04
2018-11-27T19:23:12.157Z,81.82
2018-11-27T19:25:40.683Z,82.31
2018-11-27T19:28:09.836Z,81.71
2018-11-27T19:30:38.405Z,81.66
2018-11-27T19:33:07.399Z,81.60
2018-11-27T19:35:35.953Z,81.54
2018-11-27T19:39:33.985Z,81.88
2018-11-27T19:42:02.490Z,81.70
2018-11-27T19:44:31.031Z,81.83
2018-11-27T19:46:59.563Z,81.65
2018-11-27T19:49:28.076Z,81.05
2018-11-27T19:51:56.570Z,81.07
2018-11-27T19:54:25.114Z,81.62
2018-11-27T19:56:53.660Z,81.46
2018-11-27T19:59:22.168Z,82.10
2018-11-27T20:01:50.671Z,82.09
2018-11-27T20:04:19.366Z,82.46
2018-11-27T20:06:47.717Z,82.10
2018-11-27T20:09:16.268Z,82.55
2018-11-27T20:11:44.788Z,82.64
2018-11-27T20:14:13.329Z,83.03
2018-11-27T20:16:41.803Z,83.16
2018-11-27T20:19:10.319Z,83.33
2018-11-27T20:21:38.811Z,83.26
2018-11-27T20:24:07.361Z,83.06
2018-11-27T20:26:36.312Z,83.52
2018-11-27T20:29:04.549Z,83.46
2018-11-27T20:31:33.083Z,83.46
2018-11-27T20:34:01.612Z,83.29
2018-11-27T20:36:30.297Z,83.08
2018-11-27T20:38:58.811Z,83.22
2018-11-27T20:41:27.416Z,83.22
2018-11-27T20:43:55.957Z,83.34
2018-11-27T20:46:24.466Z,83.20
2018-11-27T20:48:53.053Z,83.62
2018-11-27T20:51:21.633Z,83.52
2018-11-27T20:53:50.141Z,83.42
2018-11-27T20:56:18.660Z,83.74
2018-11-27T20:58:47.117Z,83.95
2018-11-27T21:01:15.636Z,84.59
2018-11-27T21:03:44.156Z,84.74
2018-11-27T21:06:12.770Z,84.48
2018-11-27T21:08:41.244Z,84.28
2018-11-27T21:11:09.785Z,84.15
2018-11-27T21:13:38.344Z,83.84
2018-11-27T21:16:06.912Z,83.65
2018-11-27T21:18:35.419Z,83.18
2018-11-27T21:21:03.951Z,83.24
2018-11-27T21:23:32.463Z,82.90
2018-11-27T21:26:04.866Z,82.42
2018-11-27T21:28:34.295Z,82.12
2018-11-27T21:31:03.761Z,82.37
2018-11-27T21:33:32.232Z,82.12
2018-11-27T21:36:00.767Z,81.79
2018-11-27T21:38:29.255Z,81.70
2018-11-27T21:40:57.759Z,81.27
2018-11-27T21:43:26.234Z,80.95
2018-11-27T21:45:54.736Z,80.74
2018-11-27T21:48:23.250Z,80.79
2018-11-27T21:53:34.823Z,80.89
2018-11-27T21:56:03.332Z,80.43
2018-11-27T21:58:31.823Z,80.30
2018-11-27T22:01:00.346Z,80.22
2018-11-27T22:03:28.847Z,80.35
2018-11-27T22:05:57.380Z,80.71
2018-11-27T22:08:25.863Z,80.65
2018-11-27T22:10:54.408Z,81.08
2018-11-27T22:13:22.932Z,80.91
2018-11-27T22:15:51.448Z,81.06
2018-11-27T22:18:19.943Z,81.34
2018-11-27T22:20:48.459Z,81.10
2018-11-27T22:23:16.943Z,80.91
2018-11-27T22:25:45.451Z,80.28
2018-11-27T22:28:13.933Z,80.86
2018-11-27T22:30:42.447Z,80.85
2018-11-27T22:33:10.954Z,81.08
2018-11-27T22:35:39.547Z,80.83
2018-11-27T22:38:08.563Z,80.81
2018-11-27T22:40:37.093Z,80.91
2018-11-27T22:43:06.863Z,80.85
2018-11-27T22:45:38.452Z,80.85
2018-11-27T22:48:08.204Z,80.92
2018-11-27T22:50:36.763Z,80.98
2018-11-27T22:53:06.197Z,80.90
2018-11-27T22:55:34.875Z,80.89
2018-11-27T22:58:03.396Z,80.74
2018-11-27T23:00:37.322Z,80.61
2018-11-27T23:03:05.847Z,80.89
2018-11-27T23:05:34.352Z,80.77
2018-11-27T23:08:02.903Z,80.72
2018-11-27T23:10:34.536Z,80.84
2018-11-27T23:13:03.107Z,80.85
2018-11-27T23:15:31.640Z,80.80
2018-11-27T23:18:00.153Z,80.84
2018-11-27T23:20:28.696Z,81.04
2018-11-27T23:22:57.238Z,80.92
2018-11-27T23:25:25.734Z,81.09
2018-11-27T23:27:54.294Z,81.27
2018-11-27T23:30:24.783Z,81.45
2018-11-27T23:32:53.379Z,81.24
2018-11-27T23:35:21.905Z,81.26
2018-11-27T23:37:50.470Z,81.18
2018-11-27T23:40:20.939Z,81.19
2018-11-27T23:42:49.539Z,81.39
2018-11-27T23:45:20.563Z,81.03
2018-11-27T23:47:49.148Z,81.12
2018-11-27T23:50:18.550Z,80.91
2018-11-27T23:52:47.281Z,80.62
2018-11-27T23:55:16.523Z,80.67
2018-11-27T23:57:45.437Z,80.63
